ДАННЫЕ О ПОГОДЕ

СЕГОДНЯ
Time Темп. Т росы. Влаж. Давл.
00:04 14 11.2 83 1007.2
00:14 13.9 11.1 83 1007.4
00:24 13.8 11 83 1007.4
00:35 13.8 11 83 1007.3
00:44 13.7 10.9 83 1007.3
00:54 13.6 11 84 1007.2
01:05 13.5 10.9 84 1007.2
01:15 13.4 10.8 84 1007.3
01:25 13.3 10.7 84 1007.4
01:35 13.2 10.6 84 1007.4
01:45 13 10.4 84 1007.5
01:55 12.9 10.3 84 1007.5
02:05 12.7 10.1 84 1007.6
02:15 12.5 9.9 84 1007.5
02:25 12.4 9.8 84 1007.7
02:35 12.2 9.6 84 1007.8
02:45 12.1 9.5 84 1007.8
02:56 11.9 9.3 84 1007.8
03:05 11.8 9.2 84 1007.8
03:15 11.7 9.1 84 1007.7
03:26 11.5 8.9 84 1007.9
03:36 11.5 8.9 84 1007.9
03:46 11.5 8.9 84 1007.9
03:56 11.5 8.9 84 1008
04:06 11.5 8.9 84 1008
04:16 11.5 8.9 84 1007.9
04:26 11.5 9.1 85 1007.9
04:37 11.6 9.2 85 1008
04:46 11.5 9.1 85 1007.9
04:56 11.5 9.1 85 1007.9
05:06 11.5 9.1 85 1008
05:17 11.4 9 85 1008.1
05:26 11.4 9 85 1008.1
05:36 11.3 8.9 85 1008.1
05:47 11.3 8.9 85 1008.1
05:57 11.3 8.9 85 1008
06:07 11.3 8.9 85 1008.1
06:17 11.4 9 85 1008.2
06:27 11.4 9 85 1008.2
06:37 11.4 9 85 1008.2
06:47 11.4 9.1 86 1008.2
06:58 11.5 9.2 86 1008.2
07:07 11.6 9.3 86 1008.3
07:17 11.7 9.4 86 1008.3
07:27 11.8 9.5 86 1008.4
07:38 11.9 9.6 86 1008.4
07:48 12.1 9.8 86 1008.5
07:57 12.3 10 86 1008.5
08:08 12.5 10.2 86 1008.6
08:18 12.7 10.4 86 1008.7
08:28 12.9 10.6 86 1008.7
08:38 13 10.7 86 1008.6
08:48 13.1 10.8 86 1008.8
08:58 13.1 10.8 86 1008.8
09:08 13.3 11 86 1008.9
09:19 13.5 11.2 86 1009
09:27 13.6 11.3 86 1008.9
09:38 13.9 11.6 86 1008.9
09:48 14.3 12 86 1008.9
09:59 14.6 12.3 86 1008.9
10:09 14.6 12.3 86 1008.8
10:18 14.8 12.3 85 1008.8
10:29 14.9 12.4 85 1008.8
10:39 15 12.5 85 1008.7
10:49 15.1 12.6 85 1008.6
10:59 15.4 12.7 84 1008.6
11:09 15.7 13 84 1008.5
11:19 16 13.3 84 1008.4
11:29 16.3 13.6 84 1008.5
11:39 16.5 13.6 83 1008.4
11:49 16.8 13.9 83 1008.3
11:59 16.9 14 83 1008.3
12:09 17.1 14.2 83 1008.2
12:19 17.6 14.5 82 1008.1
12:28 17.7 14.6 82 1008.1
12:39 17.8 14.7 82 1008.1
12:50 18.1 15 82 1008
13:00 18.1 14.8 81 1007.8
13:10 18.1 14.8 81 1007.9
13:19 18.1 14.8 81 1007.9
13:30 18.1 14.8 81 1007.9
13:40 18.8 15.5 81 1007.8
13:50 18.6 15.1 80 1007.8
14:01 18.5 15 80 1007.9
14:10 18.3 14.8 80 1007.9
14:20 18.2 14.7 80 1007.8
14:30 18.4 14.9 80 1007.7
14:41 18.9 15.2 79 1007.6
14:51 19.4 15.7 79 1007.6
14:59 19.8 16.1 79 1007.6
15:11 19.8 16.1 79 1007.5
15:21 19.8 16.1 79 1007.5
15:31 19.9 16.2 79 1007.5
15:41 20 16.1 78 1007.4

СТАТИСТИКА ЗА ДЕНЬ

2021-05-12
TЕМПЕРАТУРА
СРЕДНЯЯ
14.3
МАКСИМАЛЬНАЯ
20.0
15:41
МИНИМАЛЬНАЯ
11.3
05:36
ДАВЛЕНИЕ
СРЕДНЯЯ
1008.1
МАКСИМАЛЬНАЯ
1009.0
09:19
МИНИМАЛЬНАЯ
1007.2
00:04
ТОЧКА РОСЫ
СРЕДНЯЯ
11.5
МАКСИМАЛЬНАЯ
16.2
15:31
МИНИМАЛЬНАЯ
8.9
03:26
ВЛАЖНОСТЬ
СРЕДНЯЯ
84
МАКСИМАЛЬНАЯ
86
06:47
МИНИМАЛЬНАЯ
78
15:41
TЕМПЕРАТУРА (°C)
МИНИМАЛЬНАЯ
11.3
МАКСИМАЛЬНАЯ
20.0
СРЕДНЯЯ
14.3
ДАВЛЕНИЕ (hpa)
МИНИМАЛЬНАЯ
1007.2
МАКСИМАЛЬНАЯ
1009.0
СРЕДНЯЯ
1008.1
УСТРОЙСТВО